Latest  Newer  Older  Last 2 hours slideshow  Last 24 hours slideshow  Refresh every 5 minutes 
Current image  Latest image  Rain/snow radar  Cloud coverage sat images 

All time is UTC (add 2 hours to UTC in wintertime, 3 hours to UTC in DST for Latvia local time)

2020/09/30 02:20 EVRA 300220Z 01002KT 0450 0400 R36/P2000N FG NSC 06/06 Q1018 NOSIG
2020/09/30 02:20 EVLA 300220Z AUTO 00000KT 0400 R06/0900N R24/0450N FG FEW002/// 04/04 Q1017
2020/09/30 02:20 EVVA 300220Z AUTO 36001KT 0300 FG NSC 04/04 Q1018
2020/09/30 02:20 EYKA 300220Z 02005KT 350V060 CAVOK 09/07 Q1015
2020/09/30 02:20 EYPA 300220Z 07006KT CAVOK 08/07 Q1018
2020/09/30 02:20 EYSA 300220Z 36006KT 8000 NSC 07/07 Q1017 BLU TEMPO 7000 WHT
2020/09/30 02:20 EYVI 300220Z 02006KT CAVOK 09/08 Q1014 NOSIG
2020/09/29 15:20 EEKA 291520Z 35007KT 9999 FEW017 15/12 Q1019
2020/09/30 01:54 EEKE 300154Z AUTO 00000KT 0550NDV R17/0450D R35/0650D FG VV001 06/06 Q1019
2020/09/29 13:20 EEPU 291320Z 21002KT 9999 OVC023 15/15 Q1019
2020/09/30 02:20 EETN 300220Z 10003KT 9999 OVC004 12/12 Q1020
2020/09/30 01:50 EETU 300150Z AUTO 09003KT 0100 R26/0450N FG VV001 12/12 Q1019
   RIGA AIRPORT     EVRA               56 55N  023 58E   10   X     T          6 LV
   LIEPAJA INTL     EVLA        26406  56 31N  021 06E    4   X                8 LV
   VENTPILS         EVVA               57 21N  021 33E    6   X                8 LV
   KAUNAS           EYKA               54 54N  023 55E   77   X     T          6 LT
   PALANGA INTL     EYPA               55 55N  021 03E   10   X                6 LT
   SIAULIAI INTL    EYSA               55 54N  023 24E  135   X     T          6 LT
   VILNIUS INTL     EYVI        26730  54 38N  025 17E  197   X     T          6 LT
   KARDLA           EEKA        26116  58 59N  022 50E    4   X                8 EE
   KURESSAARE       EEKE               58 14N  022 31E    4   X                8 EE
   PARNU            EEPU               58 25N  024 28E   14   X                8 EE
   TALLINN          EETN        26038  59 24N  024 49E   40   X     T          8 EE
   TARTU            EETU               58 19N  026 41E   67   X                8 EE